createdAt,value
2023-05-03T00:00:06.367Z,987.73
2023-05-03T00:01:06.361Z,987.69
2023-05-03T00:02:06.455Z,987.68
2023-05-03T00:03:06.395Z,987.73
2023-05-03T00:04:06.312Z,987.75
2023-05-03T00:05:07.996Z,987.68
2023-05-03T00:06:06.362Z,987.71
2023-05-03T00:07:06.305Z,987.67
2023-05-03T00:08:06.261Z,987.64
2023-05-03T00:09:06.262Z,987.68
2023-05-03T00:10:06.247Z,987.71
2023-05-03T00:11:06.226Z,987.75
2023-05-03T00:12:06.212Z,987.78
2023-05-03T00:13:06.204Z,987.75
2023-05-03T00:14:06.184Z,987.74
2023-05-03T00:15:06.190Z,987.73
2023-05-03T00:16:06.172Z,987.73
2023-05-03T00:17:06.234Z,987.74
2023-05-03T00:18:06.187Z,987.71
2023-05-03T00:19:06.580Z,987.74
2023-05-03T00:20:06.374Z,987.73
2023-05-03T00:21:06.106Z,987.72
2023-05-03T00:22:06.074Z,987.70
2023-05-03T00:23:06.068Z,987.73
2023-05-03T00:24:06.060Z,987.68
2023-05-03T00:25:06.047Z,987.69
2023-05-03T00:26:06.059Z,987.69
2023-05-03T00:27:06.007Z,987.70
2023-05-03T00:28:06.002Z,987.69
2023-05-03T00:29:05.983Z,987.70
2023-05-03T00:30:06.070Z,987.69
2023-05-03T00:31:06.082Z,987.66
2023-05-03T00:32:05.944Z,987.72
2023-05-03T00:33:05.982Z,987.71
2023-05-03T00:34:05.923Z,987.63
2023-05-03T00:35:05.941Z,987.68
2023-05-03T00:36:05.909Z,987.63
2023-05-03T00:37:05.882Z,987.62
2023-05-03T00:38:05.882Z,987.58
2023-05-03T00:39:05.856Z,987.59
2023-05-03T00:40:06.022Z,987.59
2023-05-03T00:41:05.844Z,987.60
2023-05-03T00:42:05.834Z,987.57
2023-05-03T00:43:05.818Z,987.56
2023-05-03T00:44:05.813Z,987.55
2023-05-03T00:45:05.780Z,987.51
2023-05-03T00:46:15.816Z,987.52
2023-05-03T00:47:06.786Z,987.49
2023-05-03T00:48:05.822Z,987.47
2023-05-03T00:49:05.735Z,987.46
2023-05-03T00:50:06.019Z,987.45
2023-05-03T00:51:05.705Z,987.45
2023-05-03T00:52:05.705Z,987.45
2023-05-03T00:53:05.679Z,987.44
2023-05-03T00:54:05.667Z,987.44
2023-05-03T00:55:05.663Z,987.36
2023-05-03T00:56:05.664Z,987.42
2023-05-03T00:57:05.660Z,987.38
2023-05-03T00:58:05.623Z,987.34
2023-05-03T00:59:05.600Z,987.43
2023-05-03T01:00:05.734Z,987.34
2023-05-03T01:01:05.591Z,987.40
2023-05-03T01:02:05.665Z,987.40
2023-05-03T01:03:05.633Z,987.42
2023-05-03T01:04:05.633Z,987.49
2023-05-03T01:05:05.526Z,987.43
2023-05-03T01:06:05.574Z,987.41
2023-05-03T01:07:05.510Z,987.45
2023-05-03T01:08:05.505Z,987.43
2023-05-03T01:09:05.486Z,987.46
2023-05-03T01:10:05.607Z,987.45
2023-05-03T01:11:05.468Z,987.41
2023-05-03T01:12:05.440Z,987.47
2023-05-03T01:13:05.421Z,987.47
2023-05-03T01:14:05.417Z,987.47
2023-05-03T01:15:05.409Z,987.47
2023-05-03T01:16:05.726Z,987.48
2023-05-03T01:17:05.372Z,987.46
2023-05-03T01:18:05.378Z,987.46
2023-05-03T01:19:05.358Z,987.51
2023-05-03T01:20:05.750Z,987.45
2023-05-03T01:21:05.337Z,987.45
2023-05-03T01:22:05.336Z,987.51
2023-05-03T01:23:05.299Z,987.47
2023-05-03T01:24:05.290Z,987.46
2023-05-03T01:25:05.300Z,987.40
2023-05-03T01:26:05.269Z,987.43
2023-05-03T01:27:05.246Z,987.43
2023-05-03T01:28:05.243Z,987.46
2023-05-03T01:29:05.233Z,987.37
2023-05-03T01:30:05.471Z,987.39
2023-05-03T01:31:05.236Z,987.43
2023-05-03T01:32:05.208Z,987.35
2023-05-03T01:33:05.216Z,987.32
2023-05-03T01:34:05.160Z,987.37
2023-05-03T01:35:05.141Z,987.33
2023-05-03T01:36:05.136Z,987.42
2023-05-03T01:37:05.125Z,987.32
2023-05-03T01:38:05.115Z,987.43
2023-05-03T01:39:05.153Z,987.41
2023-05-03T01:40:05.702Z,987.38
2023-05-03T01:41:05.065Z,987.39
2023-05-03T01:42:05.073Z,987.37
2023-05-03T01:43:05.054Z,987.40
2023-05-03T01:44:05.048Z,987.33
2023-05-03T01:45:05.058Z,987.35
2023-05-03T01:46:05.034Z,987.36
2023-05-03T01:47:05.017Z,987.34
2023-05-03T01:48:05.010Z,987.34
2023-05-03T01:49:04.978Z,987.32
2023-05-03T01:50:05.324Z,987.34
2023-05-03T01:51:04.942Z,987.40
2023-05-03T01:52:04.959Z,987.36
2023-05-03T01:53:04.915Z,987.38
2023-05-03T01:54:04.918Z,987.42
2023-05-03T01:55:04.915Z,987.48
2023-05-03T01:56:04.877Z,987.45
2023-05-03T01:57:04.877Z,987.42
2023-05-03T01:58:04.865Z,987.40
2023-05-03T01:59:04.848Z,987.46
2023-05-03T02:00:05.120Z,987.44
2023-05-03T02:01:04.864Z,987.46
2023-05-03T02:02:04.827Z,987.42
2023-05-03T02:03:04.879Z,987.47
2023-05-03T02:04:04.809Z,987.44
2023-05-03T02:05:04.783Z,987.38
2023-05-03T02:06:04.779Z,987.48
2023-05-03T02:07:04.760Z,987.38
2023-05-03T02:08:04.736Z,987.44
2023-05-03T02:09:04.723Z,987.39
2023-05-03T02:10:05.143Z,987.45
2023-05-03T02:11:04.700Z,987.43
2023-05-03T02:12:04.697Z,987.46
2023-05-03T02:13:04.686Z,987.41
2023-05-03T02:14:04.665Z,987.48
2023-05-03T02:15:04.648Z,987.49
2023-05-03T02:16:04.633Z,987.44
2023-05-03T02:17:04.789Z,987.48
2023-05-03T02:18:04.640Z,987.41
2023-05-03T02:19:04.609Z,987.37
2023-05-03T02:20:04.802Z,987.39
2023-05-03T02:21:04.570Z,987.41
2023-05-03T02:22:04.563Z,987.46
2023-05-03T02:23:04.549Z,987.50
2023-05-03T02:24:04.532Z,987.45
2023-05-03T02:25:04.532Z,987.50
2023-05-03T02:26:04.511Z,987.51
2023-05-03T02:27:04.498Z,987.51
2023-05-03T02:28:04.495Z,987.60
2023-05-03T02:29:04.500Z,987.57
2023-05-03T02:30:04.845Z,987.56
2023-05-03T02:31:04.546Z,987.56
2023-05-03T02:32:04.424Z,987.51
2023-05-03T02:33:04.462Z,987.59
2023-05-03T02:34:04.423Z,987.51
2023-05-03T02:35:04.381Z,987.52
2023-05-03T02:36:04.393Z,987.50
2023-05-03T02:37:04.390Z,987.51
2023-05-03T02:38:04.357Z,987.47
2023-05-03T02:39:04.344Z,987.51
2023-05-03T02:40:04.581Z,987.48
2023-05-03T02:41:04.322Z,987.53
2023-05-03T02:42:04.333Z,987.50
2023-05-03T02:43:04.301Z,987.52
2023-05-03T02:44:04.283Z,987.45
2023-05-03T02:45:04.271Z,987.51
2023-05-03T02:46:04.299Z,987.42
2023-05-03T02:47:04.267Z,987.47
2023-05-03T02:48:04.255Z,987.48
2023-05-03T02:49:04.209Z,987.51
2023-05-03T02:50:04.543Z,987.43
2023-05-03T02:51:04.190Z,987.45
2023-05-03T02:52:04.172Z,987.52
2023-05-03T02:53:04.187Z,987.46
2023-05-03T02:54:04.149Z,987.49
2023-05-03T02:55:04.139Z,987.55
2023-05-03T02:56:04.208Z,987.50
2023-05-03T02:57:04.141Z,987.51
2023-05-03T02:58:04.100Z,987.50
2023-05-03T02:59:04.081Z,987.49
2023-05-03T03:00:04.211Z,987.55
2023-05-03T03:01:04.081Z,987.59
2023-05-03T03:02:04.083Z,987.55
2023-05-03T03:03:04.093Z,987.51
2023-05-03T03:04:04.048Z,987.55
2023-05-03T03:05:04.013Z,987.56
2023-05-03T03:06:04.045Z,987.56
2023-05-03T03:07:04.007Z,987.54
2023-05-03T03:08:03.959Z,987.55
2023-05-03T03:09:03.966Z,987.49
2023-05-03T03:10:04.191Z,987.55
2023-05-03T03:11:03.945Z,987.51
2023-05-03T03:12:03.912Z,987.53
2023-05-03T03:13:03.902Z,987.47
2023-05-03T03:14:03.908Z,987.58
2023-05-03T03:15:03.900Z,987.64
2023-05-03T03:16:03.920Z,987.53
2023-05-03T03:17:03.858Z,987.57
2023-05-03T03:18:03.903Z,987.54
2023-05-03T03:19:03.844Z,987.55
2023-05-03T03:20:04.130Z,987.53
2023-05-03T03:21:03.812Z,987.56
2023-05-03T03:22:03.801Z,987.54
2023-05-03T03:23:03.782Z,987.54
2023-05-03T03:24:03.767Z,987.56
2023-05-03T03:25:03.762Z,987.57
2023-05-03T03:26:03.754Z,987.52
2023-05-03T03:27:03.745Z,987.53
2023-05-03T03:28:03.716Z,987.54
2023-05-03T03:29:03.690Z,987.57
2023-05-03T03:30:03.921Z,987.52
2023-05-03T03:31:03.705Z,987.58
2023-05-03T03:32:03.744Z,987.56
2023-05-03T03:33:03.693Z,987.56
2023-05-03T03:34:03.624Z,987.59
2023-05-03T03:35:03.628Z,987.59
2023-05-03T03:36:03.634Z,987.60
2023-05-03T03:37:03.668Z,987.56
2023-05-03T03:38:03.584Z,987.54
2023-05-03T03:39:03.574Z,987.59
2023-05-03T03:40:03.847Z,987.58
2023-05-03T03:41:03.560Z,987.60
2023-05-03T03:42:03.536Z,987.58
2023-05-03T03:43:03.540Z,987.60
2023-05-03T03:44:03.533Z,987.60
2023-05-03T03:45:03.507Z,987.64
2023-05-03T03:46:03.491Z,987.73
2023-05-03T03:47:03.539Z,987.66
2023-05-03T03:48:03.525Z,987.57
2023-05-03T03:49:03.479Z,987.58
2023-05-03T04:02:43.456Z,987.87
2023-05-03T04:03:43.458Z,987.85
2023-05-03T04:04:43.358Z,987.86
2023-05-03T04:05:43.330Z,987.82
2023-05-03T04:06:43.428Z,987.85
2023-05-03T04:07:43.296Z,987.84
2023-05-03T04:08:43.286Z,987.85
2023-05-03T04:09:43.281Z,987.88
2023-05-03T04:10:43.289Z,987.88
2023-05-03T04:11:43.274Z,987.91
2023-05-03T04:12:43.229Z,987.87
2023-05-03T04:13:43.243Z,987.92
2023-05-03T04:14:43.224Z,987.89
2023-05-03T04:15:43.183Z,987.97
2023-05-03T04:16:43.270Z,987.94
2023-05-03T04:17:43.179Z,987.95
2023-05-03T04:18:43.152Z,987.96
2023-05-03T04:19:43.130Z,987.92
2023-05-03T04:20:43.122Z,987.99
2023-05-03T04:21:43.123Z,988.03
2023-05-03T04:22:43.093Z,988.03
2023-05-03T04:23:43.086Z,987.98
2023-05-03T04:24:43.079Z,988.03
2023-05-03T04:25:43.055Z,988.02
2023-05-03T04:26:43.050Z,988.05
2023-05-03T04:27:43.036Z,988.08
2023-05-03T04:28:43.025Z,988.12
2023-05-03T04:29:43.010Z,988.12
2023-05-03T04:30:43.017Z,988.15
2023-05-03T04:31:43.009Z,988.21
2023-05-03T04:32:43.079Z,988.14
2023-05-03T04:33:42.956Z,988.18
2023-05-03T04:34:42.954Z,988.19
2023-05-03T04:35:42.934Z,988.12
2023-05-03T04:36:42.927Z,988.17
2023-05-03T04:37:42.897Z,988.18
2023-05-03T04:38:42.893Z,988.16
2023-05-03T04:39:42.883Z,988.23
2023-05-03T04:40:42.869Z,988.18
2023-05-03T04:41:42.880Z,988.15
2023-05-03T04:42:42.829Z,988.17
2023-05-03T04:43:42.826Z,988.18
2023-05-03T04:44:42.817Z,988.23
2023-05-03T04:45:42.799Z,988.22
2023-05-03T04:46:42.859Z,988.28
2023-05-03T04:47:42.830Z,988.28
2023-05-03T04:48:42.763Z,988.36
2023-05-03T04:49:42.761Z,988.35
2023-05-03T04:50:42.730Z,988.38
2023-05-03T04:51:42.722Z,988.44
2023-05-03T04:52:42.770Z,988.42
2023-05-03T04:53:42.693Z,988.50
2023-05-03T04:54:42.689Z,988.43
2023-05-03T04:55:42.671Z,988.44
2023-05-03T04:56:42.672Z,988.50
2023-05-03T04:57:42.682Z,988.49
2023-05-03T04:58:42.644Z,988.52
2023-05-03T04:59:42.619Z,988.50
2023-05-03T05:00:42.596Z,988.53
2023-05-03T05:01:42.598Z,988.49
2023-05-03T05:02:42.661Z,988.49
2023-05-03T05:03:42.681Z,988.46
2023-05-03T05:04:42.567Z,988.56
2023-05-03T05:05:42.533Z,988.60
2023-05-03T05:06:42.685Z,988.53
2023-05-03T05:07:42.519Z,988.55
2023-05-03T05:08:42.516Z,988.58
2023-05-03T05:09:42.486Z,988.59
2023-05-03T05:10:42.490Z,988.59
2023-05-03T05:11:42.474Z,988.60
2023-05-03T05:12:42.457Z,988.62
2023-05-03T05:13:42.440Z,988.59
2023-05-03T05:14:42.465Z,988.56
2023-05-03T05:15:42.410Z,988.67
2023-05-03T05:16:42.515Z,988.63
2023-05-03T05:17:42.469Z,988.64
2023-05-03T05:18:42.365Z,988.63
2023-05-03T05:19:42.356Z,988.62
2023-05-03T05:20:42.329Z,988.58
2023-05-03T05:21:42.331Z,988.63
2023-05-03T05:22:42.310Z,988.64
2023-05-03T05:23:42.294Z,988.63
2023-05-03T05:24:42.295Z,988.54
2023-05-03T05:25:42.263Z,988.60
2023-05-03T05:26:42.293Z,988.62
2023-05-03T05:27:42.239Z,988.63
2023-05-03T05:28:42.231Z,988.52
2023-05-03T05:29:42.237Z,988.53
2023-05-03T05:30:42.225Z,988.55
2023-05-03T05:31:42.282Z,988.61
2023-05-03T05:32:42.228Z,988.59
2023-05-03T05:33:42.170Z,988.62
2023-05-03T05:34:45.526Z,988.63
2023-05-03T05:35:42.139Z,988.62
2023-05-03T05:36:42.134Z,988.63
2023-05-03T05:37:42.128Z,988.60
2023-05-03T05:38:42.119Z,988.60
2023-05-03T05:39:42.104Z,988.59
2023-05-03T05:40:42.076Z,988.63
2023-05-03T05:41:42.062Z,988.59
2023-05-03T05:42:42.078Z,988.66
2023-05-03T05:43:42.049Z,988.66
2023-05-03T05:44:42.029Z,988.67
2023-05-03T05:45:42.008Z,988.71
2023-05-03T05:46:42.067Z,988.71
2023-05-03T05:47:42.070Z,988.68
2023-05-03T05:48:41.997Z,988.76
2023-05-03T05:49:41.965Z,988.74
2023-05-03T05:50:41.945Z,988.78
2023-05-03T05:51:41.936Z,988.77
2023-05-03T05:52:41.951Z,988.72
2023-05-03T05:53:41.912Z,988.75
2023-05-03T05:54:41.903Z,988.74
2023-05-03T05:55:41.920Z,988.72
2023-05-03T05:56:41.867Z,988.75
2023-05-03T05:57:41.869Z,988.76
2023-05-03T05:58:41.863Z,988.70
2023-05-03T05:59:41.829Z,988.74
2023-05-03T06:00:41.813Z,988.76
2023-05-03T06:01:41.963Z,988.74
2023-05-03T06:02:42.261Z,988.74
2023-05-03T06:03:41.806Z,988.73
2023-05-03T06:04:41.852Z,988.77
2023-05-03T06:05:41.904Z,988.80
2023-05-03T06:06:41.840Z,988.77
2023-05-03T06:07:41.741Z,988.74
2023-05-03T06:08:41.749Z,988.77
2023-05-03T06:09:41.713Z,988.67
2023-05-03T06:10:41.713Z,988.74
2023-05-03T06:11:41.680Z,988.77
2023-05-03T06:12:41.685Z,988.70
2023-05-03T06:13:41.666Z,988.66
2023-05-03T06:14:51.708Z,988.71
2023-05-03T06:15:42.631Z,988.63
2023-05-03T06:16:41.722Z,988.72
2023-05-03T06:17:41.693Z,988.64
2023-05-03T06:18:41.610Z,988.65
2023-05-03T06:19:43.172Z,988.63
2023-05-03T06:20:41.580Z,988.68
2023-05-03T06:21:41.561Z,988.71
2023-05-03T06:22:41.586Z,988.67
2023-05-03T06:23:41.531Z,988.70
2023-05-03T06:24:41.564Z,988.67
2023-05-03T06:25:41.498Z,988.69
2023-05-03T06:26:41.494Z,988.75
2023-05-03T06:27:41.498Z,988.74
2023-05-03T06:28:41.468Z,988.71
2023-05-03T06:29:41.467Z,988.74
2023-05-03T06:30:41.520Z,988.77
2023-05-03T06:31:41.538Z,988.78
2023-05-03T06:32:41.448Z,988.76
2023-05-03T06:33:41.407Z,988.77
2023-05-03T06:34:41.400Z,988.74
2023-05-03T06:35:41.370Z,988.76
2023-05-03T06:36:41.351Z,988.75
2023-05-03T06:37:41.345Z,988.74
2023-05-03T06:38:41.326Z,988.76
2023-05-03T06:39:41.335Z,988.70
2023-05-03T06:40:41.333Z,988.74
2023-05-03T06:41:41.278Z,988.75
2023-05-03T06:42:41.281Z,988.73
2023-05-03T06:43:41.311Z,988.64
2023-05-03T06:44:41.271Z,988.71
2023-05-03T06:45:41.235Z,988.68
2023-05-03T06:46:41.257Z,988.68
2023-05-03T06:47:41.243Z,988.72
2023-05-03T06:48:41.223Z,988.68
2023-05-03T06:49:41.191Z,988.73
2023-05-03T06:50:41.176Z,988.72
2023-05-03T06:51:41.146Z,988.71
2023-05-03T06:52:41.159Z,988.71
2023-05-03T06:53:41.184Z,988.75
2023-05-03T06:54:41.134Z,988.70
2023-05-03T06:55:41.101Z,988.67
2023-05-03T06:56:41.088Z,988.72
2023-05-03T06:57:41.087Z,988.69
2023-05-03T06:58:41.078Z,988.71
2023-05-03T06:59:41.054Z,988.65
2023-05-03T07:00:41.045Z,988.68
2023-05-03T07:01:41.089Z,988.70
2023-05-03T07:02:41.115Z,988.71
2023-05-03T07:03:42.113Z,988.71
2023-05-03T07:04:40.985Z,988.65
2023-05-03T07:05:40.968Z,988.67
2023-05-03T07:06:52.420Z,988.51
2023-05-03T07:07:41.969Z,988.49
2023-05-03T07:08:40.948Z,988.57
2023-05-03T07:09:43.632Z,988.51
2023-05-03T07:10:40.921Z,988.51
2023-05-03T07:11:40.894Z,988.55
2023-05-03T07:12:40.955Z,988.54
2023-05-03T07:13:40.886Z,988.58
2023-05-03T07:14:40.891Z,988.55
2023-05-03T07:15:40.828Z,988.56
2023-05-03T07:16:40.905Z,988.53
2023-05-03T07:17:40.889Z,988.50
2023-05-03T07:18:40.797Z,988.45
2023-05-03T07:19:40.798Z,988.46
2023-05-03T07:20:40.775Z,988.43
2023-05-03T07:21:40.767Z,988.44
2023-05-03T07:22:40.754Z,988.43
2023-05-03T07:23:40.743Z,988.44
2023-05-03T07:24:40.759Z,988.49
2023-05-03T07:25:40.704Z,988.47
2023-05-03T07:26:41.994Z,988.41
2023-05-03T07:27:40.718Z,988.44
2023-05-03T07:28:40.671Z,988.42
2023-05-03T07:29:40.670Z,988.38
2023-05-03T07:30:40.652Z,988.34
2023-05-03T07:31:40.642Z,988.38
2023-05-03T07:32:40.896Z,988.34
2023-05-03T07:33:40.778Z,988.33
2023-05-03T07:34:40.599Z,988.30
2023-05-03T07:35:40.577Z,988.33
2023-05-03T07:36:40.566Z,988.29
2023-05-03T07:37:40.564Z,988.28
2023-05-03T07:38:40.556Z,988.29
2023-05-03T07:39:40.528Z,988.28
2023-05-03T07:40:40.515Z,988.25
2023-05-03T07:41:40.492Z,988.30
2023-05-03T07:42:40.491Z,988.31
2023-05-03T07:43:40.615Z,988.23
2023-05-03T07:44:40.458Z,988.21
2023-05-03T07:45:40.498Z,988.18
2023-05-03T07:46:40.426Z,988.20
2023-05-03T07:47:40.534Z,988.19
2023-05-03T07:48:40.399Z,988.16
2023-05-03T07:49:40.400Z,988.15
2023-05-03T07:50:40.411Z,988.18
2023-05-03T07:51:40.372Z,988.18
2023-05-03T07:52:40.371Z,988.13
2023-05-03T07:53:40.363Z,988.14
2023-05-03T07:54:40.321Z,988.12
2023-05-03T07:55:40.319Z,988.14
2023-05-03T07:56:40.314Z,988.06
2023-05-03T07:57:40.318Z,988.12
2023-05-03T07:58:41.069Z,988.03
2023-05-03T07:59:40.258Z,988.08
2023-05-03T08:00:40.248Z,988.06
2023-05-03T08:01:40.236Z,988.04
2023-05-03T08:02:40.358Z,988.05
2023-05-03T08:03:40.405Z,988.07
2023-05-03T08:04:40.377Z,988.07
2023-05-03T08:05:40.255Z,988.04
2023-05-03T08:06:40.186Z,988.02
2023-05-03T08:07:40.151Z,988.05
2023-05-03T08:08:40.138Z,987.98
2023-05-03T08:09:40.124Z,988.06
2023-05-03T08:10:40.105Z,988.00
2023-05-03T08:11:42.353Z,988.06
2023-05-03T08:12:40.102Z,988.02
2023-05-03T08:13:40.090Z,988.05
2023-05-03T08:14:40.070Z,987.95
2023-05-03T08:15:40.110Z,988.00
2023-05-03T08:16:40.039Z,987.96
2023-05-03T08:17:40.121Z,987.97
2023-05-03T08:18:40.024Z,988.00
2023-05-03T08:19:40.022Z,987.97
2023-05-03T08:20:39.991Z,988.01
2023-05-03T08:21:39.979Z,987.97
2023-05-03T08:22:39.964Z,987.95
2023-05-03T08:23:39.953Z,987.93
2023-05-03T08:24:39.937Z,987.94
2023-05-03T08:25:39.947Z,988.00
2023-05-03T08:26:39.927Z,987.98
2023-05-03T08:27:39.917Z,987.96
2023-05-03T08:28:39.911Z,987.96
2023-05-03T08:29:39.891Z,987.93
2023-05-03T08:30:39.868Z,987.92
2023-05-03T08:31:40.003Z,987.97
2023-05-03T08:32:39.921Z,987.94
2023-05-03T08:33:39.844Z,987.90
2023-05-03T08:34:39.813Z,987.96
2023-05-03T08:35:39.804Z,987.96
2023-05-03T08:36:39.792Z,987.95
2023-05-03T08:37:39.769Z,987.94
2023-05-03T08:38:39.771Z,987.97
2023-05-03T08:39:39.760Z,987.99
2023-05-03T08:40:39.736Z,987.99
2023-05-03T08:41:39.715Z,988.01
2023-05-03T08:42:39.697Z,987.97
2023-05-03T08:43:39.713Z,988.02
2023-05-03T08:44:39.684Z,987.97
2023-05-03T08:45:39.691Z,987.98
2023-05-03T08:46:39.711Z,987.94
2023-05-03T08:47:39.654Z,987.96
2023-05-03T08:48:39.640Z,988.02
2023-05-03T08:49:39.614Z,987.91
2023-05-03T08:50:39.601Z,987.95
2023-05-03T08:51:39.580Z,987.94
2023-05-03T08:52:39.598Z,987.89
2023-05-03T08:53:39.581Z,987.95
2023-05-03T08:54:39.541Z,987.90
2023-05-03T08:55:39.533Z,987.85
2023-05-03T08:56:39.510Z,987.91
2023-05-03T08:57:39.491Z,987.98
2023-05-03T08:58:39.500Z,987.97
2023-05-03T08:59:39.477Z,987.86
2023-05-03T09:00:39.459Z,987.95
2023-05-03T09:01:39.584Z,987.85
2023-05-03T09:02:39.543Z,987.90
2023-05-03T09:03:39.546Z,987.88
2023-05-03T09:04:39.417Z,987.92
2023-05-03T09:05:39.398Z,987.87
2023-05-03T09:06:39.406Z,987.93
2023-05-03T09:07:39.368Z,987.93
2023-05-03T09:08:39.363Z,987.94
2023-05-03T09:09:39.343Z,987.90
2023-05-03T09:10:39.335Z,987.91
2023-05-03T09:11:39.400Z,987.97
2023-05-03T09:12:39.305Z,988.03
2023-05-03T09:13:39.297Z,987.91
2023-05-03T09:14:39.286Z,987.96
2023-05-03T09:15:39.285Z,987.94
2023-05-03T09:16:39.316Z,987.91
2023-05-03T09:17:39.261Z,987.90
2023-05-03T09:18:39.234Z,987.92
2023-05-03T09:19:39.222Z,987.84
2023-05-03T09:20:39.218Z,987.85
2023-05-03T09:21:39.196Z,987.89
2023-05-03T09:22:39.213Z,987.85
2023-05-03T09:23:39.166Z,987.88
2023-05-03T09:24:39.150Z,987.75
2023-05-03T09:25:39.129Z,987.80
2023-05-03T09:26:39.114Z,987.85
2023-05-03T09:27:39.230Z,987.79
2023-05-03T09:28:39.077Z,987.82
2023-05-03T09:29:39.081Z,987.85
2023-05-03T09:30:39.063Z,987.82
2023-05-03T09:31:39.088Z,987.80
2023-05-03T09:32:39.068Z,987.79
2023-05-03T09:33:39.080Z,987.77
2023-05-03T09:34:39.017Z,987.85
2023-05-03T09:35:39.060Z,987.72
2023-05-03T09:36:38.980Z,987.73
2023-05-03T09:37:39.130Z,987.80
2023-05-03T09:38:38.964Z,987.73
2023-05-03T09:39:38.976Z,987.74
2023-05-03T09:40:38.932Z,987.78
2023-05-03T09:41:38.922Z,987.77
2023-05-03T09:42:38.942Z,987.76
2023-05-03T09:43:38.910Z,987.74
2023-05-03T09:44:38.885Z,987.74
2023-05-03T09:45:38.941Z,987.71
2023-05-03T09:46:38.851Z,987.74
2023-05-03T10:03:15.127Z,987.65
2023-05-03T10:04:15.143Z,987.66
2023-05-03T10:05:15.079Z,987.64
2023-05-03T10:06:15.112Z,987.67
2023-05-03T10:07:15.060Z,987.62
2023-05-03T10:08:15.072Z,987.60
2023-05-03T10:09:15.053Z,987.64
2023-05-03T10:10:15.029Z,987.60
2023-05-03T10:11:15.002Z,987.62
2023-05-03T10:12:15.034Z,987.65
2023-05-03T10:13:15.001Z,987.62
2023-05-03T10:14:14.965Z,987.66
2023-05-03T10:15:14.956Z,987.60
2023-05-03T10:16:15.011Z,987.64
2023-05-03T10:17:31.975Z,987.66
2023-05-03T10:18:16.102Z,987.58
2023-05-03T10:19:14.956Z,987.53
2023-05-03T10:20:14.886Z,987.53
2023-05-03T10:21:14.874Z,987.53
2023-05-03T10:22:14.876Z,987.50
2023-05-03T10:23:14.924Z,987.56
2023-05-03T10:24:14.885Z,987.43
2023-05-03T10:25:16.123Z,987.40
2023-05-03T10:26:14.830Z,987.37
2023-05-03T10:27:21.964Z,987.42
2023-05-03T10:28:14.814Z,987.39
2023-05-03T10:29:14.819Z,987.34
2023-05-03T10:30:14.760Z,987.44
2023-05-03T10:31:14.908Z,987.36
2023-05-03T10:32:14.759Z,987.36
2023-05-03T10:33:14.821Z,987.32
2023-05-03T10:34:14.752Z,987.37
2023-05-03T10:35:14.850Z,987.39
2023-05-03T10:36:14.703Z,987.36
2023-05-03T10:37:14.749Z,987.35
2023-05-03T10:38:14.797Z,987.36
2023-05-03T10:39:14.746Z,987.35
2023-05-03T10:40:14.655Z,987.40
2023-05-03T10:41:14.681Z,987.36
2023-05-03T10:42:14.617Z,987.28
2023-05-03T10:43:14.677Z,987.30
2023-05-03T10:44:14.677Z,987.23
2023-05-03T10:45:14.617Z,987.27
2023-05-03T10:46:14.566Z,987.23
2023-05-03T10:47:14.530Z,987.23
2023-05-03T10:48:14.616Z,987.30
2023-05-03T10:49:14.553Z,987.30
2023-05-03T10:50:14.582Z,987.22
2023-05-03T10:51:14.543Z,987.14
2023-05-03T10:52:14.463Z,987.13
2023-05-03T10:53:14.457Z,987.17
2023-05-03T10:54:14.461Z,987.24
2023-05-03T10:55:14.448Z,987.13
2023-05-03T10:56:14.417Z,987.14
2023-05-03T10:57:14.406Z,987.11
2023-05-03T10:58:14.393Z,987.16
2023-05-03T10:59:14.363Z,987.19
2023-05-03T11:00:14.445Z,987.20
2023-05-03T11:01:14.384Z,987.22
2023-05-03T11:02:14.329Z,987.15
2023-05-03T11:03:14.376Z,987.20
2023-05-03T11:04:14.340Z,987.17
2023-05-03T11:05:14.299Z,987.18
2023-05-03T11:06:14.337Z,987.15
2023-05-03T11:07:14.261Z,987.19
2023-05-03T11:08:14.411Z,987.16
2023-05-03T11:09:14.392Z,987.17
2023-05-03T11:10:14.233Z,987.14
2023-05-03T11:11:14.199Z,987.16
2023-05-03T11:12:14.208Z,987.14
2023-05-03T11:13:14.174Z,987.11
2023-05-03T11:14:14.185Z,987.10
2023-05-03T11:15:14.154Z,987.14
2023-05-03T11:16:14.164Z,987.06
2023-05-03T11:17:14.127Z,987.09
2023-05-03T11:18:14.186Z,987.07
2023-05-03T11:19:14.108Z,987.08
2023-05-03T11:20:14.130Z,987.06
2023-05-03T11:21:14.078Z,987.04
2023-05-03T11:22:14.075Z,986.94
2023-05-03T11:23:14.053Z,986.99
2023-05-03T11:24:14.059Z,986.99
2023-05-03T11:25:14.105Z,986.92
2023-05-03T11:26:14.030Z,986.95
2023-05-03T11:27:14.035Z,986.88
2023-05-03T11:28:13.996Z,986.96
2023-05-03T11:29:14.019Z,986.91
2023-05-03T11:30:14.100Z,986.99
2023-05-03T11:31:13.954Z,986.98
2023-05-03T11:32:14.146Z,986.95
2023-05-03T11:33:13.933Z,986.96
2023-05-03T11:34:13.923Z,986.96
2023-05-03T11:35:13.914Z,986.92
2023-05-03T11:36:13.977Z,986.96
2023-05-03T11:37:13.901Z,987.00
2023-05-03T11:38:13.934Z,987.00
2023-05-03T11:39:13.953Z,986.99
2023-05-03T11:40:13.990Z,986.88
2023-05-03T11:41:13.835Z,986.89
2023-05-03T11:42:13.916Z,986.93
2023-05-03T11:43:13.803Z,986.88
2023-05-03T11:44:17.604Z,986.94
2023-05-03T11:45:13.764Z,986.89
2023-05-03T11:46:13.808Z,986.87
2023-05-03T11:47:13.881Z,986.86
2023-05-03T11:48:14.104Z,986.88
2023-05-03T11:49:13.784Z,986.82
2023-05-03T11:50:13.823Z,986.88
2023-05-03T11:51:13.709Z,986.92
2023-05-03T11:52:13.677Z,986.85
2023-05-03T11:53:13.660Z,986.90
2023-05-03T11:55:14.654Z,986.89
2023-05-03T11:56:13.636Z,986.87
2023-05-03T11:57:13.619Z,986.89
2023-05-03T11:58:13.600Z,986.84
2023-05-03T11:59:13.594Z,986.90
2023-05-03T12:00:13.637Z,986.84
2023-05-03T12:01:13.578Z,986.81
2023-05-03T12:02:13.859Z,986.81
2023-05-03T12:03:13.645Z,986.87
2023-05-03T12:04:13.699Z,986.88
2023-05-03T12:05:14.330Z,986.80
2023-05-03T12:06:13.821Z,986.83
2023-05-03T12:07:15.105Z,986.78
2023-05-03T12:08:15.691Z,986.81
2023-05-03T12:09:13.763Z,986.77
2023-05-03T12:10:17.125Z,986.70
2023-05-03T12:11:15.283Z,986.79
2023-05-03T12:12:15.042Z,986.76
2023-05-03T12:13:14.262Z,986.76
2023-05-03T12:14:13.465Z,986.82
2023-05-03T12:15:15.978Z,986.78
2023-05-03T12:16:15.198Z,986.78
2023-05-03T12:17:15.510Z,986.80
2023-05-03T12:18:13.682Z,986.74
2023-05-03T12:19:15.906Z,986.77
2023-05-03T12:20:51.403Z,986.72
2023-05-03T12:22:23.691Z,986.72
2023-05-03T12:23:15.584Z,986.70
2023-05-03T12:24:14.957Z,986.67
2023-05-03T12:25:15.454Z,986.68
2023-05-03T12:26:14.562Z,986.71
2023-05-03T12:28:20.158Z,986.64
2023-05-03T12:29:14.305Z,986.69
2023-05-03T12:30:13.538Z,986.68
2023-05-03T12:31:13.400Z,986.62
2023-05-03T12:32:13.329Z,986.59
2023-05-03T12:33:15.320Z,986.59
2023-05-03T12:34:32.533Z,986.64
2023-05-03T12:35:14.914Z,986.57
2023-05-03T12:36:14.788Z,986.58
2023-05-03T12:37:16.750Z,986.55
2023-05-03T12:38:15.833Z,986.61
2023-05-03T12:39:16.031Z,986.53
2023-05-03T12:41:17.308Z,986.53
2023-05-03T12:42:15.103Z,986.54
2023-05-03T12:43:13.159Z,986.47
2023-05-03T12:44:16.528Z,986.49
2023-05-03T12:45:13.395Z,986.49
2023-05-03T12:46:33.255Z,986.49
2023-05-03T12:47:16.884Z,986.47
2023-05-03T12:48:14.138Z,986.48
2023-05-03T12:49:15.027Z,986.48
2023-05-03T12:50:13.303Z,986.47
2023-05-03T12:52:36.593Z,986.42
2023-05-03T12:53:16.885Z,986.40
2023-05-03T12:54:13.084Z,986.36
2023-05-03T12:55:17.622Z,986.32
2023-05-03T12:56:14.039Z,986.39
2023-05-03T12:57:15.495Z,986.29
2023-05-03T12:58:43.133Z,986.27
2023-05-03T13:00:14.915Z,986.28
2023-05-03T13:01:47.568Z,986.36
2023-05-03T13:05:23.998Z,986.27